Time;durP1;ratioP1;P1;durP2;ratioP2;P2;SDS_P1;SDS_P2;PMS_P1;PMS_P2;Temp;Humidity;BMP_temperature;BMP_pressure;BME280_temperature;BME280_humidity;BME280_pressure;Samples;Min_cycle;Max_cycle;Signal;HPM_P1;HPM_P2
2021/05/03 00:01:03;;;;;;;24.95;9.07;;;;;;;18.65;72.67;99818.41;5029219;28;20072;-80
2021/05/03 00:03:29;;;;;;;28.88;12.18;;;;;;;18.77;71.78;99804.41;5028745;28;20068;-71
2021/05/03 00:05:57;;;;;;;22.13;7.50;;;;;;;19.13;70.67;99809.34;5029036;28;20124;-69
2021/05/03 00:08:24;;;;;;;25.02;9.65;;;;;;;19.30;70.18;99780.44;5028964;28;20040;-69
2021/05/03 00:10:50;;;;;;;22.55;8.57;;;;;;;19.34;69.09;99766.41;5028883;28;20215;-70
2021/05/03 00:13:16;;;;;;;21.95;5.70;;;;;;;19.55;68.13;99779.28;5028768;28;20053;-68
2021/05/03 00:15:41;;;;;;;19.63;7.07;;;;;;;19.74;67.18;99784.31;5027122;28;20547;-76
2021/05/03 00:18:07;;;;;;;20.95;6.53;;;;;;;19.82;66.54;99790.31;5028475;28;20053;-73
2021/05/03 00:20:32;;;;;;;22.75;7.70;;;;;;;19.71;66.27;99776.50;5028661;28;20033;-74
2021/05/03 00:22:58;;;;;;;47.55;22.65;;;;;;;19.92;66.54;99790.25;5015504;28;20034;-70
2021/05/03 00:25:24;;;;;;;17.98;6.07;;;;;;;19.96;65.11;99789.31;5010079;28;20030;-72
2021/05/03 00:27:49;;;;;;;18.27;5.88;;;;;;;20.02;64.97;99787.47;5011342;28;20476;-78
2021/05/03 00:30:15;;;;;;;22.92;6.30;;;;;;;20.11;64.78;99786.53;5011430;28;20037;-73
2021/05/03 00:32:42;;;;;;;15.23;5.63;;;;;;;20.15;64.66;99777.72;5009630;28;20191;-74
2021/05/03 00:35:08;;;;;;;19.50;6.35;;;;;;;20.12;64.65;99782.13;5011533;28;20054;-72
2021/05/03 00:37:34;;;;;;;18.10;5.57;;;;;;;19.96;64.64;99764.00;5011113;28;20109;-72
2021/05/03 00:39:59;;;;;;;21.30;6.05;;;;;;;20.13;64.65;99789.13;5010747;28;20172;-73
2021/05/03 00:42:25;;;;;;;15.35;5.70;;;;;;;20.24;64.52;99816.03;5011145;28;20030;-72
2021/05/03 00:44:51;;;;;;;14.30;5.40;;;;;;;20.08;64.12;99814.53;5010903;28;20026;-70
2021/05/03 00:47:19;;;;;;;16.10;5.40;;;;;;;19.82;63.45;99786.84;5009882;28;20184;-71
2021/05/03 00:49:44;;;;;;;12.80;5.30;;;;;;;19.65;64.18;99807.97;5010718;28;20029;-71
2021/05/03 00:52:11;;;;;;;15.32;5.43;;;;;;;19.72;64.24;99810.50;5010992;28;20034;-70
2021/05/03 00:54:37;;;;;;;17.48;5.40;;;;;;;19.57;64.04;99760.94;5010589;28;20072;-71
2021/05/03 00:57:03;;;;;;;15.65;5.43;;;;;;;19.87;64.26;99804.25;5010677;28;20053;-70
2021/05/03 00:59:28;;;;;;;19.35;5.53;;;;;;;19.85;65.08;99795.56;5010957;28;20037;-73
2021/05/03 01:01:54;;;;;;;19.67;5.43;;;;;;;19.58;66.80;99808.94;5010759;28;20029;-70
2021/05/03 01:04:19;;;;;;;16.10;5.80;;;;;;;19.16;68.14;99799.75;5010981;28;20034;-70
2021/05/03 01:06:45;;;;;;;15.90;5.78;;;;;;;18.90;69.68;99819.16;5010593;28;20022;-72
2021/05/03 01:09:10;;;;;;;14.07;5.30;;;;;;;18.96;68.78;99823.47;5009637;28;20115;-70
2021/05/03 01:11:37;;;;;;;15.30;5.13;;;;;;;18.00;71.33;99805.69;5010483;28;20092;-72
2021/05/03 01:14:03;;;;;;;17.38;6.30;;;;;;;17.79;73.21;99819.69;5010664;28;20025;-73
2021/05/03 01:16:29;;;;;;;15.25;6.15;;;;;;;18.03;72.76;99805.72;5010881;28;20036;-70
2021/05/03 01:18:54;;;;;;;20.23;5.85;;;;;;;18.01;73.18;99817.91;5026009;28;20049;-70
2021/05/03 01:21:24;;;;;;;16.90;6.05;;;;;;;17.57;74.99;99806.69;5010833;28;20041;-70
2021/05/03 01:23:50;;;;;;;18.08;5.97;;;;;;;17.06;77.84;99824.13;5010787;28;20026;-69
2021/05/03 01:26:16;;;;;;;17.63;5.60;;;;;;;17.16;77.61;99817.19;5010912;28;20026;-72
2021/05/03 01:28:41;;;;;;;16.98;5.78;;;;;;;17.44;76.61;99820.63;5010444;28;20032;-71
2021/05/03 01:31:07;;;;;;;19.75;6.47;;;;;;;17.55;75.99;99834.53;5011910;28;20041;-72
2021/05/03 01:33:32;;;;;;;18.85;5.57;;;;;;;17.70;75.29;99840.59;5014385;28;20022;-78
2021/05/03 01:35:58;;;;;;;17.92;5.63;;;;;;;17.89;74.30;99838.78;5014023;28;20026;-75
2021/05/03 01:38:23;;;;;;;19.40;5.65;;;;;;;18.05;73.38;99827.44;5014515;28;20408;-77
2021/05/03 01:40:49;;;;;;;15.60;6.18;;;;;;;17.25;73.93;99804.16;5014182;28;20431;-74
2021/05/03 01:43:18;;;;;;;18.08;5.88;;;;;;;17.20;75.56;99852.84;5014041;28;20061;-75
2021/05/03 01:45:45;;;;;;;14.05;6.25;;;;;;;17.34;75.34;99855.44;5014694;28;20050;-73
2021/05/03 01:48:16;;;;;;;20.42;7.18;;;;;;;17.23;75.14;99853.69;5014262;28;20030;-74
2021/05/03 01:50:41;;;;;;;15.50;6.72;;;;;;;17.41;75.05;99865.88;5013167;28;20052;-78
2021/05/03 01:53:07;;;;;;;17.52;6.90;;;;;;;17.53;74.58;99853.69;5029366;28;20465;-74
2021/05/03 01:55:35;;;;;;;16.05;6.30;;;;;;;17.45;74.50;99882.41;5014400;28;20396;-74
2021/05/03 01:58:04;;;;;;;14.98;7.03;;;;;;;17.23;74.73;99858.91;5013249;28;20109;-76
2021/05/03 02:00:30;;;;;;;;;;;;;;;17.21;74.75;99862.38;5013312;28;20053;-76
2021/05/03 02:02:56;;;;;;;22.20;7.25;;;;;;;17.13;75.15;99851.97;5013770;28;19914;-74
2021/05/03 02:05:24;;;;;;;13.13;5.97;;;;;;;16.98;75.75;99851.09;5014095;28;20164;-74
2021/05/03 02:08:05;;;;;;;17.30;6.45;;;;;;;16.44;77.49;99801.44;5006983;28;20037;-76
2021/05/03 02:10:33;;;;;;;19.08;6.40;;;;;;;16.63;77.79;99828.41;5012102;28;20527;-76
2021/05/03 02:13:00;;;;;;;19.65;6.30;;;;;;;16.88;77.11;99853.66;5013619;28;20061;-75
2021/05/03 02:15:30;;;;;;;22.83;7.85;;;;;;;17.04;75.87;99851.97;5014133;28;20026;-74
2021/05/03 02:17:56;;;;;;;17.95;6.53;;;;;;;17.01;76.21;99859.78;5012377;28;20022;-74
2021/05/03 02:20:22;;;;;;;53.78;23.70;;;;;;;16.86;76.08;99829.31;5013567;28;20083;-74
2021/05/03 02:22:48;;;;;;;54.03;23.77;;;;;;;17.16;75.73;99875.44;5012130;28;20124;-77
2021/05/03 02:25:13;;;;;;;25.10;9.73;;;;;;;17.36;75.06;99856.28;5012255;28;20030;-75
2021/05/03 02:27:39;;;;;;;22.77;7.55;;;;;;;17.57;74.82;99852.78;5013225;28;20030;-74
2021/05/03 02:30:06;;;;;;;23.48;7.75;;;;;;;17.77;73.69;99847.56;5013477;28;20163;-78
2021/05/03 02:32:35;;;;;;;19.50;6.20;;;;;;;17.49;73.50;99841.50;5011784;28;20096;-74
2021/05/03 02:35:06;;;;;;;18.67;6.47;;;;;;;17.44;73.66;99860.63;5013674;28;20072;-76
2021/05/03 02:37:33;;;;;;;17.48;5.63;;;;;;;17.67;72.82;99856.25;5011794;28;20477;-73
2021/05/03 02:39:59;;;;;;;23.42;6.63;;;;;;;17.71;73.21;99865.84;5013686;28;20079;-74
2021/05/03 02:42:24;;;;;;;20.98;5.68;;;;;;;17.69;73.77;99851.91;5011573;28;20117;-73
2021/05/03 02:44:50;;;;;;;20.90;6.32;;;;;;;17.78;73.53;99844.03;5011753;28;20021;-76
2021/05/03 02:47:16;;;;;;;24.23;6.55;;;;;;;17.73;73.64;99856.25;5013237;28;20030;-76
2021/05/03 02:49:41;;;;;;;20.67;5.97;;;;;;;17.42;73.63;99830.19;5013156;28;20032;-74
2021/05/03 02:52:07;;;;;;;19.00;6.07;;;;;;;17.56;73.47;99874.56;5012567;28;20033;-74
2021/05/03 02:54:32;;;;;;;20.27;6.13;;;;;;;17.31;74.29;99892.84;5013008;28;20488;-74
2021/05/03 02:56:58;;;;;;;20.63;6.30;;;;;;;17.13;74.95;99901.50;5011925;28;20026;-73
2021/05/03 02:59:24;;;;;;;16.15;5.82;;;;;;;17.03;75.33;99902.38;5010245;28;20037;-74
2021/05/03 03:01:49;;;;;;;19.63;6.53;;;;;;;17.07;75.11;99911.94;5010507;28;20058;-77
2021/05/03 03:04:17;;;;;;;19.25;7.43;;;;;;;17.00;74.68;99915.41;5010754;28;20050;-75
2021/05/03 03:06:43;;;;;;;20.38;6.22;;;;;;;17.00;74.86;99915.41;4995600;28;20385;-71
2021/05/03 03:09:08;;;;;;;21.35;6.95;;;;;;;16.87;75.73;99915.34;5010243;28;20036;-71
2021/05/03 03:11:34;;;;;;;22.92;7.25;;;;;;;16.78;75.57;99878.84;5009612;28;20559;-71
2021/05/03 03:14:01;;;;;;;19.05;7.28;;;;;;;16.78;76.48;99910.13;5010124;28;20030;-72
2021/05/03 03:16:27;;;;;;;19.65;7.47;;;;;;;16.52;77.44;99917.84;5010527;28;20072;-76
2021/05/03 03:18:55;;;;;;;22.15;7.45;;;;;;;16.40;77.61;99916.06;4993442;28;20037;-72
2021/05/03 03:21:20;;;;;;;17.10;7.22;;;;;;;16.42;77.85;99937.78;5009680;28;20092;-73
2021/05/03 03:23:46;;;;;;;19.98;7.32;;;;;;;16.25;77.13;99930.78;5009667;28;20038;-72
2021/05/03 03:26:11;;;;;;;14.20;6.40;;;;;;;16.39;76.30;99917.81;5009849;28;20443;-72
2021/05/03 03:28:38;;;;;;;20.48;6.80;;;;;;;16.36;76.59;99924.72;5010016;28;20787;-76
2021/05/03 03:31:03;;;;;;;21.60;6.20;;;;;;;16.83;75.60;99970.94;5009772;28;20104;-71
2021/05/03 03:33:29;;;;;;;21.92;10.15;;;;;;;17.05;74.63;99977.13;5009960;28;20034;-76
2021/05/03 03:35:54;;;;;;;29.10;14.40;;;;;;;17.29;73.53;99986.72;5009702;28;20030;-72
2021/05/03 03:38:20;;;;;;;22.35;10.88;;;;;;;17.41;72.60;99975.47;5012290;28;20105;-72
2021/05/03 03:40:46;;;;;;;32.67;11.68;;;;;;;17.50;71.90;99968.53;5011964;28;20030;-72
2021/05/03 03:43:12;;;;;;;20.80;6.60;;;;;;;17.65;70.98;99985.94;5012045;28;20499;-72
2021/05/03 03:45:37;;;;;;;21.38;5.75;;;;;;;17.67;70.56;99985.06;5029082;28;20033;-73
2021/05/03 03:48:05;;;;;;;16.48;4.63;;;;;;;17.36;68.35;99989.34;5029190;28;20471;-72
2021/05/03 03:50:30;;;;;;;15.05;4.93;;;;;;;17.31;68.37;99994.59;5029047;28;20075;-71
2021/05/03 03:52:56;;;;;;;15.25;4.32;;;;;;;17.46;66.21;99997.22;5028055;28;20481;-72
2021/05/03 03:55:21;;;;;;;13.05;3.60;;;;;;;17.29;63.14;100002.38;5012468;28;20038;-73
2021/05/03 03:57:47;;;;;;;15.15;3.83;;;;;;;17.53;60.96;100016.34;5012412;28;20106;-72
2021/05/03 04:00:13;;;;;;;15.35;3.22;;;;;;;17.55;54.36;100004.19;5029327;28;20048;-72
2021/05/03 04:02:39;;;;;;;11.75;2.80;;;;;;;17.78;53.02;100026.81;5012435;28;20080;-75
2021/05/03 04:26:11;;;;;;;11.20;2.25;;;;;;;18.80;41.62;100042.34;5011341;28;20041;-70
2021/05/03 04:28:37;;;;;;;17.70;2.15;;;;;;;19.01;40.07;100037.94;5010084;28;20034;-72
2021/05/03 04:31:02;;;;;;;35.08;4.15;;;;;;;19.13;39.72;100019.56;5026136;28;20244;-72
2021/05/03 04:33:28;;;;;;;9.98;2.15;;;;;;;19.12;38.64;100015.22;5011561;28;20491;-72
2021/05/03 04:35:53;;;;;;;13.77;2.95;;;;;;;19.04;38.87;99994.31;5011260;28;20121;-72
2021/05/03 04:38:19;;;;;;;12.57;2.05;;;;;;;18.89;39.48;99990.00;5011310;28;20022;-73
2021/05/03 04:40:46;;;;;;;15.43;2.45;;;;;;;19.14;40.56;100050.09;5028151;28;20048;-71
2021/05/03 04:43:14;;;;;;;13.57;2.33;;;;;;;19.14;39.97;100049.19;5028403;28;20050;-71
2021/05/03 04:45:40;;;;;;;8.82;2.05;;;;;;;19.18;40.68;100051.81;5028600;28;20591;-73
2021/05/03 04:48:06;;;;;;;8.95;2.35;;;;;;;19.11;40.91;100038.78;5028397;28;20072;-71
2021/05/03 04:50:31;;;;;;;14.05;3.17;;;;;;;19.25;41.58;100039.53;5028468;28;20077;-71
2021/05/03 04:52:57;;;;;;;10.57;2.85;;;;;;;19.22;41.92;100024.72;5027859;28;20108;-72
2021/05/03 04:55:22;;;;;;;13.93;2.72;;;;;;;19.36;41.25;100019.41;5011744;28;20515;-72
2021/05/03 04:57:48;;;;;;;9.85;2.65;;;;;;;19.14;41.75;100004.72;5028074;28;20152;-71
2021/05/03 05:00:15;;;;;;;12.77;2.00;;;;;;;19.29;41.17;100053.50;5028435;28;20046;-72
2021/05/03 05:02:40;;;;;;;9.20;2.28;;;;;;;19.22;40.95;100084.06;5028591;28;20381;-74
2021/05/03 05:05:09;;;;;;;8.80;2.13;;;;;;;19.23;40.57;100086.66;5030773;28;20040;-71
2021/05/03 05:07:35;;;;;;;11.50;2.13;;;;;;;19.05;40.47;100061.47;5031998;28;20087;-71
2021/05/03 05:10:01;;;;;;;11.13;2.38;;;;;;;19.13;41.25;100079.75;5032008;28;20037;-75
2021/05/03 05:12:26;;;;;;;11.27;2.10;;;;;;;19.14;41.45;100089.34;5016960;28;20049;-75
2021/05/03 05:14:52;;;;;;;7.82;2.00;;;;;;;19.17;40.70;100059.69;5014721;28;20022;-71
2021/05/03 05:17:17;;;;;;;10.68;2.92;;;;;;;19.23;40.51;100072.72;5012962;28;20025;-72
2021/05/03 05:19:43;;;;;;;12.80;2.63;;;;;;;19.13;40.67;100078.84;5014670;28;20018;-71
2021/05/03 05:22:11;;;;;;;9.70;2.47;;;;;;;19.16;40.63;100091.94;5012726;28;20503;-72
2021/05/03 05:24:36;;;;;;;10.73;2.03;;;;;;;18.96;41.51;100092.88;5013358;28;20037;-72
2021/05/03 05:27:04;;;;;;;15.07;2.45;;;;;;;18.77;40.94;100052.81;5014618;28;20030;-71
2021/05/03 05:29:30;;;;;;;11.48;2.33;;;;;;;18.94;41.92;100060.66;5014515;28;20018;-71
2021/05/03 05:31:55;;;;;;;16.73;3.58;;;;;;;19.22;41.32;100092.78;5014294;28;20469;-72
2021/05/03 05:34:21;;;;;;;12.27;2.45;;;;;;;19.16;40.73;100066.63;5014260;28;20053;-72
2021/05/03 05:36:47;;;;;;;15.88;2.42;;;;;;;19.27;40.25;100081.44;5014042;28;20056;-71
2021/05/03 05:39:12;;;;;;;11.52;2.10;;;;;;;19.39;41.05;100099.69;5014616;28;20587;-74
2021/05/03 05:41:39;;;;;;;8.75;2.30;;;;;;;19.40;42.07;100085.69;5014173;28;20033;-71
2021/05/03 05:44:06;;;;;;;9.40;2.25;;;;;;;19.43;41.36;100103.13;5013091;28;20421;-73
2021/05/03 05:46:36;;;;;;;15.18;2.40;;;;;;;19.41;41.29;100113.63;5029474;28;20030;-72
2021/05/03 05:49:03;;;;;;;;;;;;;;;19.41;42.03;100108.38;5013262;28;20065;-75
2021/05/03 05:51:30;;;;;;;12.02;2.97;;;;;;;19.41;42.25;100121.47;5013717;28;20418;-72
2021/05/03 05:54:02;;;;;;;8.75;1.80;;;;;;;19.34;41.02;100097.09;5014012;28;20115;-72
2021/05/03 05:56:27;;;;;;;10.07;2.10;;;;;;;19.21;41.41;100075.31;5012686;28;20506;-70
2021/05/03 05:58:53;;;;;;;9.52;2.47;;;;;;;19.54;42.74;100111.84;5029147;28;20111;-74
2021/05/03 06:01:19;;;;;;;11.80;2.17;;;;;;;19.35;41.75;100061.31;5014107;28;20042;-71
2021/05/03 06:03:44;;;;;;;11.00;2.60;;;;;;;19.73;42.47;100112.59;5013500;28;20072;-72
2021/05/03 06:06:11;;;;;;;12.77;2.60;;;;;;;19.68;41.49;100112.59;5012353;28;20030;-71
2021/05/03 06:08:36;;;;;;;12.60;3.05;;;;;;;19.42;41.80;100075.25;5014001;28;20054;-76
2021/05/03 06:11:02;;;;;;;10.43;2.50;;;;;;;19.86;43.57;100110.78;5013707;28;20064;-72
2021/05/03 06:13:28;;;;;;;13.02;2.50;;;;;;;19.83;42.09;100106.44;5013470;28;20050;-74
2021/05/03 06:15:54;;;;;;;12.02;3.17;;;;;;;19.84;42.97;100115.16;5009011;28;20484;-74
2021/05/03 06:18:20;;;;;;;9.73;2.58;;;;;;;19.54;42.19;100085.66;5013018;28;20033;-72
2021/05/03 06:20:46;;;;;;;14.80;2.53;;;;;;;19.68;42.18;100116.97;5010991;28;20026;-73
2021/05/03 06:23:12;;;;;;;9.30;2.28;;;;;;;19.54;41.83;100109.22;5009723;28;20113;-72
2021/05/03 06:25:39;;;;;;;11.05;2.35;;;;;;;19.53;42.76;100120.56;5013219;28;20100;-72
2021/05/03 06:28:04;;;;;;;11.25;2.20;;;;;;;19.43;43.65;100109.25;5012058;28;20404;-74
2021/05/03 06:30:30;;;;;;;8.20;2.22;;;;;;;19.52;43.46;100114.44;5012946;28;20026;-71
2021/05/03 06:32:55;;;;;;;15.35;2.85;;;;;;;19.71;43.45;100117.84;5012710;28;20049;-71
2021/05/03 06:35:22;;;;;;;8.45;2.15;;;;;;;19.79;43.63;100125.63;5012401;28;20026;-72
2021/05/03 06:37:48;;;;;;;10.07;2.50;;;;;;;20.09;43.79;100134.19;5011657;28;20064;-71
2021/05/03 06:40:14;;;;;;;9.93;2.47;;;;;;;20.32;43.33;100128.75;5012228;28;20037;-75
2021/05/03 06:42:42;;;;;;;15.68;3.63;;;;;;;20.45;42.15;100129.53;5012377;28;20527;-72
2021/05/03 06:45:09;;;;;;;10.48;2.67;;;;;;;20.53;43.05;100135.53;5012727;28;20022;-72
2021/05/03 06:47:36;;;;;;;7.82;2.17;;;;;;;20.49;41.77;100139.09;5012153;28;20038;-75
2021/05/03 06:50:06;;;;;;;13.23;2.22;;;;;;;20.57;43.21;100131.13;5011119;28;20079;-75
2021/05/03 06:52:32;;;;;;;16.85;2.70;;;;;;;20.66;42.47;100110.09;5011079;28;20055;-72
2021/05/03 06:54:57;;;;;;;9.32;2.50;;;;;;;21.10;42.76;100154.25;5011537;28;20496;-72
2021/05/03 06:57:23;;;;;;;9.70;2.65;;;;;;;21.30;42.78;100149.63;5012400;28;20036;-72
2021/05/03 06:59:49;;;;;;;7.25;2.33;;;;;;;21.29;42.23;100147.03;5012328;28;20108;-72
2021/05/03 07:02:14;;;;;;;9.77;2.58;;;;;;;21.33;42.37;100157.47;5012294;28;20022;-76
2021/05/03 07:04:39;;;;;;;13.40;3.78;;;;;;;21.32;43.01;100167.97;5012390;28;20492;-72
2021/05/03 07:07:05;;;;;;;10.15;2.13;;;;;;;21.26;43.49;100144.41;5012110;28;20138;-74
2021/05/03 07:09:32;;;;;;;14.60;2.75;;;;;;;21.38;45.02;100131.13;5012211;28;20464;-72
2021/05/03 07:11:59;;;;;;;9.38;2.13;;;;;;;21.67;43.83;100166.72;5011760;28;20045;-72
2021/05/03 07:14:25;;;;;;;8.93;2.60;;;;;;;21.76;43.40;100163.94;5010425;28;20412;-73
2021/05/03 07:16:50;;;;;;;13.00;3.58;;;;;;;21.85;43.13;100173.44;5011826;28;20026;-73
2021/05/03 07:19:16;;;;;;;10.02;2.47;;;;;;;21.83;41.27;100174.38;5012159;28;20435;-74
2021/05/03 07:21:41;;;;;;;13.57;2.78;;;;;;;21.98;42.07;100177.63;5011816;28;20029;-73
2021/05/03 07:24:12;;;;;;;16.15;2.50;;;;;;;21.87;42.86;100119.13;5012044;28;20026;-72
2021/05/03 07:26:40;;;;;;;16.52;2.65;;;;;;;22.36;41.55;100183.19;5011829;28;20024;-77
2021/05/03 07:29:06;;;;;;;7.35;2.40;;;;;;;22.46;40.78;100171.66;5010718;28;20092;-78
2021/05/03 07:31:32;;;;;;;8.48;2.13;;;;;;;22.60;41.77;100162.66;5011319;28;20030;-73
2021/05/03 07:33:58;;;;;;;8.50;2.40;;;;;;;22.67;40.11;100143.22;5010779;28;20069;-76
2021/05/03 07:36:24;;;;;;;10.80;3.08;;;;;;;22.64;40.41;100126.63;5010006;28;20028;-76
2021/05/03 07:38:52;;;;;;;9.45;2.30;;;;;;;22.99;40.75;100157.56;5011481;28;20521;-75
2021/05/03 07:41:18;;;;;;;9.10;2.42;;;;;;;22.85;41.73;100170.09;5009993;28;20014;-73
2021/05/03 07:43:43;;;;;;;6.97;2.08;;;;;;;22.71;41.68;100186.16;5010935;28;20473;-74
2021/05/03 07:46:09;;;;;;;9.95;2.60;;;;;;;22.97;42.25;100177.78;5010657;28;20029;-72
2021/05/03 07:48:34;;;;;;;15.60;2.60;;;;;;;23.03;40.90;100192.56;5011376;28;20083;-72
2021/05/03 07:51:00;;;;;;;9.50;2.60;;;;;;;22.96;41.13;100181.28;5010478;28;20477;-75
2021/05/03 07:53:25;;;;;;;11.75;2.53;;;;;;;23.24;40.24;100188.69;5011195;28;20026;-76
2021/05/03 07:55:51;;;;;;;11.93;2.55;;;;;;;23.12;41.62;100181.03;5026109;28;20480;-76
2021/05/03 07:58:16;;;;;;;10.32;2.22;;;;;;;22.94;40.89;100177.81;5010652;28;20022;-77
2021/05/03 08:00:42;;;;;;;9.20;2.50;;;;;;;23.18;40.16;100173.88;5011181;28;20052;-75
2021/05/03 08:03:07;;;;;;;5.72;2.13;;;;;;;22.94;39.49;100177.81;5011014;28;20026;-76
2021/05/03 08:05:33;;;;;;;8.15;2.08;;;;;;;23.12;39.64;100173.97;5011280;28;20045;-76
2021/05/03 08:08:00;;;;;;;7.63;2.92;;;;;;;23.25;39.14;100166.72;5025190;28;20034;-77
2021/05/03 08:10:26;;;;;;;10.38;3.00;;;;;;;23.31;38.57;100163.97;5008716;28;20022;-76
2021/05/03 08:12:52;;;;;;;7.80;2.30;;;;;;;23.60;38.42;100167.72;5010357;28;20050;-76
2021/05/03 08:15:20;;;;;;;9.85;3.05;;;;;;;23.78;39.46;100170.91;5010987;28;20017;-76
2021/05/03 08:17:46;;;;;;;9.48;2.78;;;;;;;23.74;39.63;100176.22;5007301;28;20033;-77
2021/05/03 08:20:14;;;;;;;14.38;3.50;;;;;;;23.97;39.09;100174.84;5011086;28;20021;-76
2021/05/03 08:22:41;;;;;;;13.77;2.60;;;;;;;23.81;39.24;100176.09;5009871;28;20172;-75
2021/05/03 08:25:07;;;;;;;10.30;2.65;;;;;;;23.88;38.25;100180.31;5009314;28;20030;-73
2021/05/03 08:27:34;;;;;;;12.82;2.38;;;;;;;23.83;38.21;100174.28;5009782;28;20021;-73
2021/05/03 08:29:59;;;;;;;9.77;2.60;;;;;;;23.80;38.34;100132.16;5010852;28;20240;-76
2021/05/03 08:32:25;;;;;;;13.00;2.97;;;;;;;24.11;38.24;100165.75;5025498;28;20963;-75
2021/05/03 08:34:51;;;;;;;9.73;2.83;;;;;;;24.26;39.33;100162.72;5010589;28;20505;-76
2021/05/03 08:37:17;;;;;;;15.05;2.88;;;;;;;24.25;37.99;100155.75;4982062;28;20030;-75
2021/05/03 08:39:42;;;;;;;13.02;3.17;;;;;;;24.36;39.17;100140.50;5009179;28;20029;-72
2021/05/03 08:42:09;;;;;;;10.10;2.20;;;;;;;24.38;39.10;100109.66;5010114;28;20152;-74
2021/05/03 08:44:35;;;;;;;11.20;2.50;;;;;;;24.63;38.71;100145.97;5010200;28;20022;-77
2021/05/03 08:47:01;;;;;;;8.77;2.15;;;;;;;24.62;38.18;100162.69;5022656;28;20037;-77
2021/05/03 08:54:45;;;;;;;14.27;3.00;;;;;;;25.01;40.96;100146.72;5009499;28;20511;-76
2021/05/03 08:57:14;;;;;;;9.18;2.63;;;;;;;24.99;39.18;100147.69;5009860;28;20026;-76
2021/05/03 08:59:41;;;;;;;8.40;2.90;;;;;;;24.95;38.69;100152.19;5010359;28;20026;-77
2021/05/03 09:02:10;;;;;;;10.95;2.25;;;;;;;25.14;38.85;100149.88;5010915;28;20058;-77
2021/05/03 09:04:36;;;;;;;13.18;2.00;;;;;;;25.08;36.85;100157.97;5010487;28;20026;-77
2021/05/03 09:07:05;;;;;;;12.93;2.00;;;;;;;25.26;37.19;100161.00;5005005;28;20096;-78
2021/05/03 09:09:34;;;;;;;9.18;2.30;;;;;;;25.29;37.68;100145.06;5009282;28;20034;-77
2021/05/03 09:12:07;;;;;;;17.92;2.70;;;;;;;25.70;36.83;100150.06;5010835;28;20145;-77
2021/05/03 09:14:43;;;;;;;6.97;2.17;;;;;;;25.68;36.42;100148.34;5009785;28;20172;-74
2021/05/03 09:17:21;;;;;;;9.02;2.35;;;;;;;25.77;38.24;100149.81;5000540;28;20139;-76
2021/05/03 09:19:46;;;;;;;11.18;2.40;;;;;;;25.93;34.70;100150.22;5008823;28;20081;-76
2021/05/03 09:22:23;;;;;;;9.40;2.08;;;;;;;26.16;33.68;100153.91;5008879;28;20188;-74
2021/05/03 09:24:50;;;;;;;8.80;2.45;;;;;;;26.16;32.24;100140.69;5009097;28;20026;-75
2021/05/03 09:27:20;;;;;;;7.28;2.22;;;;;;;26.02;30.38;100146.41;5010572;28;20029;-72
2021/05/03 09:29:47;;;;;;;7.78;2.65;;;;;;;25.91;31.45;100107.06;4998876;28;20018;-72
2021/05/03 09:32:20;;;;;;;10.25;2.10;;;;;;;26.12;32.82;100147.84;5008548;28;20048;-75
2021/05/03 09:34:50;;;;;;;9.85;2.85;;;;;;;26.15;35.34;100139.78;5010003;28;20030;-76
2021/05/03 09:37:16;;;;;;;5.95;2.13;;;;;;;26.04;34.18;100138.41;5008313;28;20124;-77
2021/05/03 09:39:42;;;;;;;9.65;2.33;;;;;;;25.84;32.92;100110.81;5009914;28;20029;-80
2021/05/03 09:42:08;;;;;;;11.45;2.30;;;;;;;26.10;32.75;100122.38;5010479;28;20034;-80
2021/05/03 09:44:34;;;;;;;10.10;2.50;;;;;;;26.17;33.14;100131.84;5008402;28;20091;-77
2021/05/03 09:47:00;;;;;;;9.40;2.03;;;;;;;26.43;33.93;100140.66;5009647;28;20030;-76
2021/05/03 09:49:25;;;;;;;9.07;2.17;;;;;;;26.12;32.57;100134.63;5008855;28;20515;-73
2021/05/03 09:51:52;;;;;;;9.57;2.55;;;;;;;26.17;33.70;100145.06;5011803;28;20029;-75
2021/05/03 09:54:26;;;;;;;9.63;2.08;;;;;;;26.47;33.90;100142.31;5013475;28;20163;-75
2021/05/03 09:57:10;;;;;;;9.07;1.73;;;;;;;26.61;30.08;100133.88;5013358;28;20046;-78
2021/05/03 09:59:48;;;;;;;15.38;7.00;;;;;;;26.66;28.65;100147.81;5008315;28;20538;-82
2021/05/03 10:02:30;;;;;;;9.63;2.20;;;;;;;26.43;29.15;100151.25;5027364;28;20022;-81
2021/05/03 10:05:10;;;;;;;9.00;2.20;;;;;;;26.39;30.67;100155.78;5027586;28;20033;-80
2021/05/03 10:07:39;;;;;;;7.93;2.78;;;;;;;26.54;29.10;100153.53;5012295;28;20051;-79
2021/05/03 10:10:36;;;;;;;8.07;1.97;;;;;;;26.64;29.92;100113.44;5013282;28;20061;-83
2021/05/03 10:13:02;;;;;;;10.98;2.10;;;;;;;26.51;29.57;100169.53;5012483;28;20073;-82
2021/05/03 10:15:28;;;;;;;9.48;2.55;;;;;;;26.02;30.21;100138.47;5028315;28;20380;-83
2021/05/03 10:17:53;;;;;;;8.60;2.22;;;;;;;26.36;30.01;100169.13;5026798;28;20260;-79
2021/05/03 10:20:20;;;;;;;7.60;1.90;;;;;;;26.46;28.68;100169.69;5013188;28;20101;-80
2021/05/03 10:22:52;;;;;;;12.32;3.15;;;;;;;26.72;30.62;100154.69;5013214;28;20057;-82
2021/05/03 10:25:20;;;;;;;8.95;1.77;;;;;;;26.61;29.07;100171.78;5011934;28;20519;-81
2021/05/03 10:27:48;;;;;;;10.32;2.42;;;;;;;26.58;30.18;100169.25;5011835;28;20022;-81
2021/05/03 10:30:16;;;;;;;8.73;2.33;;;;;;;26.24;30.45;100135.97;5013031;28;20034;-82
2021/05/03 10:32:45;;;;;;;7.47;2.20;;;;;;;26.62;29.97;100172.69;5030058;28;20042;-81
2021/05/03 10:35:27;;;;;;;7.38;1.70;;;;;;;26.16;30.66;100157.41;5013891;28;20037;-83
2021/05/03 10:37:54;;;;;;;6.20;1.58;;;;;;;26.00;29.90;100193.19;5030207;28;20029;-74
2021/05/03 10:40:20;;;;;;;12.50;2.67;;;;;;;26.12;31.43;100189.28;5027377;28;20454;-75
2021/05/03 10:43:04;;;;;;;10.20;2.83;;;;;;;26.62;31.46;100199.16;5032265;28;20091;-75
2021/05/03 10:48:51;;;;;;;7.80;2.85;;;;;;;26.53;32.17;100204.75;4932643;29;20099;-79
2021/05/03 10:51:46;;;;;;;10.65;3.58;;;;;;;26.71;30.71;100198.81;4932878;29;20028;-73
2021/05/03 10:57:28;;;;;;;8.00;2.33;;;;;;;26.41;32.25;100195.44;4930472;29;20517;-74
2021/05/03 10:59:58;;;;;;;6.32;1.92;;;;;;;26.23;31.47;100184.56;4931864;29;20138;-72
2021/05/03 11:02:25;;;;;;;22.17;8.57;;;;;;;26.65;31.07;100201.69;4933067;29;20031;-75
2021/05/03 11:05:22;;;;;;;18.33;8.85;;;;;;;26.82;31.41;100185.25;4932039;29;20071;-76
2021/05/03 11:08:03;;;;;;;22.38;11.98;;;;;;;26.93;32.04;100188.38;4916306;29;20043;-74
2021/05/03 11:10:53;;;;;;;11.57;3.95;;;;;;;26.79;33.06;100185.34;4932544;29;20503;-74
2021/05/03 11:13:41;;;;;;;7.25;2.72;;;;;;;26.77;32.90;100176.59;4932438;29;20048;-72
2021/05/03 11:16:27;;;;;;;11.65;3.35;;;;;;;26.63;32.26;100185.84;4931494;29;20050;-78
2021/05/03 11:18:58;;;;;;;7.68;2.72;;;;;;;26.30;33.67;100149.00;4892322;29;20081;-78
2021/05/03 11:21:42;;;;;;;12.10;3.75;;;;;;;26.68;32.52;100182.16;4878977;29;20089;-78
2021/05/03 11:24:21;;;;;;;9.10;2.83;;;;;;;26.69;33.42;100184.75;4899075;29;20536;-77
2021/05/03 11:29:31;;;;;;;9.48;2.13;;;;;;;26.52;33.10;100176.53;4952734;29;20102;-77
2021/05/03 11:31:58;;;;;;;10.07;4.47;;;;;;;26.94;33.21;100171.56;4952693;29;20047;-78
2021/05/03 11:34:31;;;;;;;8.40;2.35;;;;;;;27.19;32.75;100181.28;4952940;29;20090;-79
2021/05/03 11:37:01;;;;;;;8.10;2.42;;;;;;;27.37;31.98;100177.06;4936704;29;20063;-77
2021/05/03 11:44:55;;;;;;;5.53;2.15;;;;;;;27.67;31.36;100128.25;4914619;29;20422;-78
2021/05/03 11:47:30;;;;;;;12.73;2.10;;;;;;;28.07;33.89;100161.16;4914109;29;20043;-77
2021/05/03 11:49:57;;;;;;;7.60;3.20;;;;;;;28.12;29.59;100158.31;4914629;29;20415;-79
2021/05/03 11:52:33;;;;;;;6.75;2.20;;;;;;;28.03;31.69;100154.22;4914521;29;20032;-80
2021/05/03 11:55:21;;;;;;;5.82;1.92;;;;;;;27.97;31.29;100149.16;4921862;28;20486;-78
2021/05/03 11:57:48;;;;;;;8.85;1.70;;;;;;;28.17;31.48;100162.50;4991095;28;20031;-78
2021/05/03 12:00:18;;;;;;;6.63;2.15;;;;;;;28.16;30.39;100123.59;4991294;28;20038;-78
2021/05/03 12:02:45;;;;;;;10.25;1.90;;;;;;;28.44;32.56;100154.31;4991221;28;20093;-78
2021/05/03 12:05:16;;;;;;;9.38;2.10;;;;;;;27.99;30.57;100153.47;4990817;28;20041;-77